createdAt,value
2023-01-22T00:00:36.425Z,3.80
2023-01-22T00:03:04.494Z,3.85
2023-01-22T00:05:32.297Z,4.05
2023-01-22T00:08:09.442Z,3.88
2023-01-22T00:10:36.306Z,3.25
2023-01-22T00:13:05.026Z,3.47
2023-01-22T00:15:32.695Z,3.65
2023-01-22T00:18:00.471Z,3.72
2023-01-22T00:20:54.522Z,4.18
2023-01-22T00:23:23.663Z,3.30
2023-01-22T00:26:03.651Z,4.00
2023-01-22T00:28:32.403Z,3.63
2023-01-22T00:31:01.890Z,2.78
2023-01-22T00:36:22.699Z,3.80
2023-01-22T00:38:56.042Z,4.03
2023-01-22T00:41:24.282Z,3.42
2023-01-22T00:43:57.275Z,4.20
2023-01-22T00:46:26.376Z,3.67
2023-01-22T00:48:54.394Z,3.78
2023-01-22T00:51:24.384Z,3.63
2023-01-22T00:53:52.240Z,3.10
2023-01-22T00:56:44.278Z,3.83
2023-01-22T00:59:36.247Z,3.53
2023-01-22T01:02:04.492Z,3.63
2023-01-22T01:04:32.850Z,3.42
2023-01-22T01:07:00.352Z,3.10
2023-01-22T01:09:28.232Z,3.47
2023-01-22T01:11:56.551Z,3.63
2023-01-22T01:14:28.521Z,3.40
2023-01-22T01:16:58.889Z,3.55
2023-01-22T01:19:26.229Z,3.53
2023-01-22T01:21:54.178Z,3.65
2023-01-22T01:24:22.284Z,3.72
2023-01-22T01:26:50.367Z,3.25
2023-01-22T01:29:18.917Z,3.47
2023-01-22T01:31:46.416Z,3.63
2023-01-22T01:34:39.672Z,3.55
2023-01-22T01:37:08.368Z,3.30
2023-01-22T01:39:36.483Z,4.15
2023-01-22T01:45:32.485Z,2.75
2023-01-22T01:48:15.016Z,3.38
2023-01-22T01:53:50.583Z,3.40
2023-01-22T01:56:28.623Z,2.97
2023-01-22T01:59:02.339Z,3.70
2023-01-22T02:01:34.962Z,2.97
2023-01-22T02:04:02.947Z,3.35
2023-01-22T02:06:30.563Z,3.40
2023-01-22T02:09:22.488Z,3.20
2023-01-22T02:11:51.804Z,3.63
2023-01-22T02:14:28.100Z,3.72
2023-01-22T02:19:52.252Z,3.40
2023-01-22T02:22:27.192Z,4.13
2023-01-22T02:25:01.267Z,3.33
2023-01-22T02:27:28.457Z,3.08
2023-01-22T02:29:56.466Z,3.42
2023-01-22T02:32:24.477Z,3.10
2023-01-22T02:34:54.931Z,3.33
2023-01-22T02:37:48.486Z,3.22
2023-01-22T02:40:17.100Z,3.33
2023-01-22T02:43:10.467Z,3.28
2023-01-22T02:46:02.654Z,3.55
2023-01-22T02:48:36.665Z,3.22
2023-01-22T02:51:04.906Z,3.10
2023-01-22T02:53:32.406Z,3.22
2023-01-22T02:56:00.869Z,3.33
2023-01-22T02:58:28.433Z,2.97
2023-01-22T03:01:23.488Z,3.28
2023-01-22T03:04:01.606Z,3.17
2023-01-22T03:06:34.411Z,3.38
2023-01-22T03:09:02.364Z,3.13
2023-01-22T03:11:41.241Z,3.33
2023-01-22T03:14:34.887Z,3.42
2023-01-22T03:17:23.053Z,3.00
2023-01-22T03:20:10.930Z,3.60
2023-01-22T03:22:38.465Z,3.08
2023-01-22T03:25:06.765Z,3.05
2023-01-22T03:30:26.613Z,3.28
2023-01-22T03:32:54.488Z,3.60
2023-01-22T03:35:22.543Z,3.17
2023-01-22T03:38:12.431Z,3.47
2023-01-22T03:41:08.709Z,3.20
2023-01-22T03:43:41.304Z,3.35
2023-01-22T03:46:13.194Z,3.20
2023-01-22T03:48:44.701Z,3.28
2023-01-22T03:51:38.377Z,3.28
2023-01-22T03:54:06.635Z,3.30
2023-01-22T03:56:34.255Z,3.00
2023-01-22T03:59:09.617Z,3.03
2023-01-22T04:01:38.480Z,2.83
2023-01-22T04:04:06.341Z,3.13
2023-01-22T04:06:34.352Z,3.15
2023-01-22T04:09:02.333Z,3.15
2023-01-22T04:11:38.256Z,3.20
2023-01-22T04:14:08.489Z,3.40
2023-01-22T04:16:52.109Z,2.90
2023-01-22T04:19:48.267Z,3.63
2023-01-22T04:25:26.404Z,3.28
2023-01-22T04:27:54.302Z,3.22
2023-01-22T04:30:22.316Z,3.17
2023-01-22T04:33:04.794Z,3.25
2023-01-22T04:35:44.230Z,3.42
2023-01-22T04:38:13.841Z,3.20
2023-01-22T04:40:42.261Z,3.53
2023-01-22T04:43:10.343Z,3.05
2023-01-22T04:45:43.570Z,3.15
2023-01-22T04:48:12.727Z,2.83
2023-01-22T04:51:06.937Z,3.22
2023-01-22T04:53:34.319Z,3.85
2023-01-22T04:56:07.483Z,3.08
2023-01-22T04:58:36.344Z,3.22
2023-01-22T05:04:01.410Z,3.50
2023-01-22T05:06:36.437Z,3.28
2023-01-22T05:09:04.502Z,2.97
2023-01-22T05:11:58.350Z,3.05
2023-01-22T05:14:26.429Z,2.53
2023-01-22T05:17:21.128Z,3.67
2023-01-22T05:19:54.469Z,2.88
2023-01-22T05:22:22.517Z,3.13
2023-01-22T05:24:50.487Z,3.33
2023-01-22T05:27:47.703Z,3.20
2023-01-22T05:30:48.286Z,3.70
2023-01-22T05:33:42.833Z,3.17
2023-01-22T05:36:15.072Z,3.42
2023-01-22T05:38:51.887Z,3.08
2023-01-22T05:41:20.392Z,2.90
2023-01-22T05:43:48.404Z,3.20
2023-01-22T05:46:47.676Z,3.30
2023-01-22T05:49:36.386Z,3.40
2023-01-22T05:55:00.104Z,3.40
2023-01-22T06:00:48.333Z,2.92
2023-01-22T06:03:23.458Z,3.45
2023-01-22T06:09:19.340Z,2.85
2023-01-22T06:11:48.398Z,3.10
2023-01-22T06:14:16.526Z,3.08
2023-01-22T06:17:15.281Z,3.47
2023-01-22T06:19:56.279Z,3.33
2023-01-22T06:22:24.412Z,3.22
2023-01-22T06:24:56.373Z,2.80
2023-01-22T06:27:28.333Z,2.72
2023-01-22T06:30:02.347Z,3.38
2023-01-22T06:32:54.791Z,2.75
2023-01-22T06:35:22.320Z,3.53
2023-01-22T06:37:57.664Z,3.10
2023-01-22T06:40:26.511Z,3.15
2023-01-22T06:42:59.437Z,3.13
2023-01-22T06:45:26.430Z,2.65
2023-01-22T06:47:58.584Z,3.40
2023-01-22T06:50:26.462Z,3.30
2023-01-22T06:52:54.364Z,3.35
2023-01-22T06:55:22.378Z,3.15
2023-01-22T06:57:57.752Z,3.63
2023-01-22T07:00:26.398Z,3.75
2023-01-22T07:02:54.886Z,3.47
2023-01-22T07:05:23.267Z,3.22
2023-01-22T07:07:54.273Z,3.75
2023-01-22T07:10:22.915Z,3.15
2023-01-22T07:13:16.152Z,3.25
2023-01-22T07:15:44.496Z,4.07
2023-01-22T07:18:22.586Z,3.20
2023-01-22T07:20:50.492Z,4.25
2023-01-22T07:23:18.758Z,3.22
2023-01-22T07:25:46.662Z,3.30
2023-01-22T07:31:16.362Z,3.20
2023-01-22T07:36:36.307Z,3.20
2023-01-22T07:39:08.332Z,3.50
2023-01-22T07:42:01.359Z,3.20
2023-01-22T07:44:54.346Z,3.40
2023-01-22T07:47:27.427Z,3.22
2023-01-22T07:49:54.348Z,2.78
2023-01-22T07:52:22.208Z,2.90
2023-01-22T07:55:15.065Z,3.03
2023-01-22T07:57:42.527Z,3.03
2023-01-22T08:00:11.535Z,2.80
2023-01-22T08:02:42.906Z,3.35
2023-01-22T08:05:12.512Z,3.38
2023-01-22T08:07:40.671Z,3.47
2023-01-22T08:10:10.014Z,2.95
2023-01-22T08:12:50.937Z,2.75
2023-01-22T08:15:20.142Z,3.33
2023-01-22T08:17:52.769Z,2.80
2023-01-22T08:20:21.322Z,2.58
2023-01-22T08:23:03.761Z,3.30
2023-01-22T08:25:50.975Z,3.08
2023-01-22T08:28:45.877Z,3.25
2023-01-22T08:31:27.425Z,3.38
2023-01-22T08:34:22.535Z,3.30
2023-01-22T08:37:00.582Z,2.88
2023-01-22T08:39:28.458Z,3.30
2023-01-22T08:44:50.364Z,3.65
2023-01-22T08:47:23.373Z,3.58
2023-01-22T08:49:50.908Z,2.72
2023-01-22T08:52:23.610Z,3.13
2023-01-22T08:54:52.256Z,3.72
2023-01-22T08:57:20.670Z,3.60
2023-01-22T09:00:01.614Z,2.85
2023-01-22T09:02:32.841Z,3.13
2023-01-22T09:05:05.730Z,3.17
2023-01-22T09:07:34.372Z,3.33
2023-01-22T09:10:02.696Z,3.65
2023-01-22T09:15:22.681Z,3.75
2023-01-22T09:20:42.240Z,3.42
2023-01-22T09:23:10.279Z,2.88
2023-01-22T09:25:38.269Z,3.00
2023-01-22T09:28:13.940Z,3.08
2023-01-22T09:30:42.805Z,2.70
2023-01-22T09:33:10.365Z,3.05
2023-01-22T09:35:38.330Z,3.00
2023-01-22T09:38:06.589Z,3.33
2023-01-22T09:40:52.593Z,2.78
2023-01-22T09:44:01.028Z,2.35
2023-01-22T09:46:45.343Z,2.83
2023-01-22T09:49:16.275Z,2.70
2023-01-22T09:51:59.991Z,3.13
2023-01-22T09:54:53.573Z,2.47
2023-01-22T09:57:31.243Z,2.17
2023-01-22T10:00:00.376Z,2.42
2023-01-22T10:02:40.620Z,2.78
2023-01-22T10:05:24.045Z,3.08
2023-01-22T10:08:15.403Z,2.75
2023-01-22T10:10:42.407Z,3.13
2023-01-22T10:13:26.298Z,3.13
2023-01-22T10:15:55.873Z,2.92
2023-01-22T10:18:34.564Z,2.60
2023-01-22T10:21:05.746Z,2.88
2023-01-22T10:23:34.658Z,2.50
2023-01-22T10:26:40.187Z,2.25
2023-01-22T10:29:30.949Z,2.67
2023-01-22T10:32:21.551Z,2.55
2023-01-22T10:35:19.163Z,2.13
2023-01-22T10:37:49.119Z,2.80
2023-01-22T10:40:38.281Z,2.70
2023-01-22T10:43:15.007Z,2.58
2023-01-22T10:46:04.673Z,2.42
2023-01-22T10:48:33.292Z,2.65
2023-01-22T10:51:12.194Z,3.45
2023-01-22T10:53:49.878Z,2.40
2023-01-22T10:56:40.394Z,2.50
2023-01-22T10:59:28.220Z,2.63
2023-01-22T11:02:02.327Z,2.50
2023-01-22T11:04:33.544Z,2.22
2023-01-22T11:07:21.826Z,2.90
2023-01-22T11:10:24.934Z,2.53
2023-01-22T11:13:08.809Z,2.88
2023-01-22T11:16:11.770Z,2.22
2023-01-22T11:18:43.607Z,3.63
2023-01-22T11:21:25.179Z,2.60
2023-01-22T11:24:02.303Z,3.70
2023-01-22T11:26:57.148Z,2.70
2023-01-22T11:29:48.819Z,5.25
2023-01-22T11:32:52.807Z,3.97
2023-01-22T11:35:52.408Z,2.97
2023-01-22T11:38:42.614Z,2.67
2023-01-22T11:45:22.802Z,3.00
2023-01-22T11:51:28.573Z,3.83
2023-01-22T11:54:35.072Z,2.97
2023-01-22T11:57:28.833Z,3.65
2023-01-22T11:59:56.125Z,3.92
2023-01-22T12:05:43.724Z,2.53
2023-01-22T12:08:31.473Z,2.60
2023-01-22T12:14:31.556Z,1.95
2023-01-22T12:17:33.261Z,2.38
2023-01-22T12:20:33.459Z,4.15
2023-01-22T12:23:17.733Z,3.90
2023-01-22T12:26:25.268Z,3.00
2023-01-22T12:29:21.104Z,3.95
2023-01-22T12:31:58.260Z,5.00
2023-01-22T12:39:06.998Z,3.28
2023-01-22T12:41:52.793Z,2.40
2023-01-22T12:44:56.709Z,2.25
2023-01-22T12:47:41.379Z,2.38
2023-01-22T12:53:29.554Z,3.55
2023-01-22T12:56:10.159Z,2.70
2023-01-22T12:58:41.634Z,2.63
2023-01-22T13:01:14.357Z,2.10
2023-01-22T13:03:42.581Z,2.20
2023-01-22T13:14:39.563Z,1.58
2023-01-22T13:17:36.672Z,2.20
2023-01-22T13:20:04.471Z,2.30
2023-01-22T13:22:33.275Z,1.77
2023-01-22T13:25:00.280Z,2.08
2023-01-22T13:30:34.115Z,1.70
2023-01-22T13:33:15.860Z,2.35
2023-01-22T13:35:57.784Z,2.13
2023-01-22T13:39:29.990Z,2.60
2023-01-22T13:48:27.792Z,1.80
2023-01-22T13:50:59.490Z,2.25
2023-01-22T13:53:36.734Z,2.00
2023-01-22T13:56:05.191Z,1.80
2023-01-22T13:58:49.426Z,1.52
2023-01-22T14:01:32.569Z,1.90
2023-01-22T14:04:02.727Z,1.63
2023-01-22T14:06:30.971Z,2.50
2023-01-22T14:09:03.488Z,1.98
2023-01-22T14:11:40.840Z,1.60
2023-01-22T14:14:18.978Z,1.70
2023-01-22T14:16:46.493Z,1.75
2023-01-22T14:19:19.294Z,2.28
2023-01-22T14:22:11.797Z,2.17
2023-01-22T14:24:40.221Z,1.80
2023-01-22T14:27:08.372Z,2.65
2023-01-22T14:29:36.270Z,1.58
2023-01-22T14:32:04.622Z,1.83
2023-01-22T14:34:37.279Z,1.98
2023-01-22T14:37:22.680Z,2.25
2023-01-22T14:39:50.521Z,2.20
2023-01-22T14:42:25.528Z,2.08
2023-01-22T14:45:01.539Z,1.88
2023-01-22T14:47:30.342Z,2.42
2023-01-22T14:49:58.522Z,2.28
2023-01-22T14:52:26.616Z,1.63
2023-01-22T14:54:56.086Z,1.80
2023-01-22T14:57:25.047Z,1.77
2023-01-22T14:59:52.207Z,2.15
2023-01-22T15:02:25.378Z,1.75
2023-01-22T15:04:52.494Z,1.90
2023-01-22T15:07:25.229Z,2.30
2023-01-22T15:09:52.570Z,1.98
2023-01-22T15:15:14.641Z,1.73
2023-01-22T15:17:42.441Z,1.70
2023-01-22T15:20:11.015Z,2.13
2023-01-22T15:22:49.737Z,1.95
2023-01-22T15:25:18.441Z,1.90
2023-01-22T15:27:50.412Z,2.28
2023-01-22T15:30:23.449Z,1.90
2023-01-22T15:32:52.759Z,1.60
2023-01-22T15:35:45.447Z,1.55
2023-01-22T15:38:12.225Z,1.55
2023-01-22T15:40:40.470Z,1.50
2023-01-22T15:43:08.723Z,1.88
2023-01-22T15:45:36.376Z,2.60
2023-01-22T15:51:21.247Z,2.28
2023-01-22T15:53:53.273Z,2.60
2023-01-22T15:56:27.391Z,2.03
2023-01-22T15:59:26.043Z,2.33
2023-01-22T16:01:54.278Z,4.10
2023-01-22T16:04:46.222Z,2.00
2023-01-22T16:07:14.228Z,2.20
2023-01-22T16:09:42.133Z,2.25
2023-01-22T16:12:10.319Z,1.92
2023-01-22T16:14:38.199Z,2.60
2023-01-22T16:17:30.463Z,2.08
2023-01-22T16:19:58.282Z,2.30
2023-01-22T16:22:26.267Z,2.28
2023-01-22T16:24:54.456Z,2.30
2023-01-22T16:27:22.733Z,2.40
2023-01-22T16:29:50.880Z,2.03
2023-01-22T16:32:21.884Z,2.17
2023-01-22T16:34:50.954Z,2.05
2023-01-22T16:37:21.640Z,2.05
2023-01-22T16:39:50.773Z,2.15
2023-01-22T16:42:27.126Z,2.20
2023-01-22T16:44:54.947Z,1.85
2023-01-22T16:47:29.251Z,1.98
2023-01-22T16:50:02.313Z,2.85
2023-01-22T16:52:32.356Z,2.75
2023-01-22T16:55:09.655Z,2.22
2023-01-22T16:57:38.598Z,2.15
2023-01-22T17:00:12.590Z,2.30
2023-01-22T17:02:41.110Z,2.30
2023-01-22T17:05:13.197Z,3.42
2023-01-22T17:07:41.389Z,3.40
2023-01-22T17:10:43.301Z,3.78
2023-01-22T17:13:13.571Z,2.60
2023-01-22T17:15:44.083Z,3.03
2023-01-22T17:18:12.733Z,3.22
2023-01-22T17:20:43.213Z,4.65
2023-01-22T17:23:20.813Z,8.60
2023-01-22T17:26:15.944Z,10.43
2023-01-22T17:28:46.104Z,11.63
2023-01-22T17:31:45.135Z,7.97
2023-01-22T17:34:36.063Z,9.98
2023-01-22T17:37:36.231Z,4.40
2023-01-22T17:40:07.758Z,3.30
2023-01-22T17:42:41.111Z,3.67
2023-01-22T17:45:12.673Z,3.03
2023-01-22T17:48:10.335Z,8.63
2023-01-22T17:53:50.470Z,6.18
2023-01-22T17:59:56.619Z,3.80
2023-01-22T18:02:58.348Z,5.07
2023-01-22T18:05:29.508Z,5.18
2023-01-22T18:08:17.934Z,6.95
2023-01-22T18:10:56.424Z,10.38
2023-01-22T18:13:28.259Z,5.68
2023-01-22T18:16:02.567Z,6.07
2023-01-22T18:18:30.280Z,8.88
2023-01-22T18:21:07.003Z,14.38
2023-01-22T18:23:40.380Z,3.95
2023-01-22T18:26:09.133Z,7.97
2023-01-22T18:28:36.693Z,5.25
2023-01-22T18:31:13.942Z,3.70
2023-01-22T18:33:45.921Z,7.68
2023-01-22T18:39:20.640Z,6.32
2023-01-22T18:41:48.452Z,6.15
2023-01-22T18:44:18.383Z,6.30
2023-01-22T18:47:16.724Z,4.50
2023-01-22T18:49:50.772Z,6.43
2023-01-22T18:52:49.234Z,4.43
2023-01-22T18:55:17.285Z,4.90
2023-01-22T18:57:46.303Z,3.83
2023-01-22T19:00:15.533Z,2.85
2023-01-22T19:02:48.132Z,2.42
2023-01-22T19:05:16.260Z,3.97
2023-01-22T19:07:44.230Z,3.20
2023-01-22T19:10:12.329Z,3.20
2023-01-22T19:13:06.262Z,1.80
2023-01-22T19:15:39.379Z,1.95
2023-01-22T19:18:06.258Z,2.70
2023-01-22T19:20:39.424Z,2.72
2023-01-22T19:23:06.434Z,3.00
2023-01-22T19:25:38.229Z,2.58
2023-01-22T19:28:06.191Z,2.40
2023-01-22T19:30:34.223Z,3.00
2023-01-22T19:35:55.346Z,1.98
